Terminal Aerodrome Forecast
Issued by NWS

Home | Current Version | Previous Version | Text Only | Print | Product List | Glossary On
Versions: 1 2 3 4 5 6 7 8 9 10 11 12 13 14 15 16
000
FTUS44 KLZK 251730
TAFHOT
TAF
KHOT 251730Z 2518/2618 33008KT 5SM -RA BR OVC050
     FM252300 27007KT 5SM -RA BR SCT010 OVC025
      TEMPO 2523/2603 3SM -RA BR OVC010
     FM260300 33006KT 3SM -RA BR OVC007
     FM260800 34005KT 6SM BR OVC009
     FM261500 33009KT P6SM OVC015=

USA.gov is the U.S. government's official web portal to all federal, state and local government web resources and services.